Hauptseite
METAR-TAF:

METAR-TAF

Flughäfen :

RAF Wittering

Wittering, England

Breite: 52-37N, Länge: 000-28W, Höhe: 84 m

Beobachtung

Neuester Wetterbericht von vor 1 Stunde und 1 Minuten, um 00:50 UTC
Wind 8 kt aus Nord/Nordost
Temperatur 12°C
Luftfeuchtigkeit 100%
Luftdruck 1020 hPa
Sichtweite: 0300 m
Nebel

METAR: EGXT 260050Z AUTO 02008KT 0300 FG VV/// 12/12 Q1020

Zeit: 02:51 (01:51 UTC)


TAF: fehlend

Wetterbeobachtungen und Prognosen von mehr als 4000 Flughäfen (METAR und TAF Bericht).

Die verfügbaren Stationen werden durch gelbe und rote Markierungen auf der Karte dargestellt.

Führen Sie die Maus auf sie, um den Namen der Station zu sehen.

Darauf klicken, um die Beobachtung von Wetterbeobachtungen und Prognosen zu sehen.

Um die Karte zu ändern : klicken Sie auf den grünen Tasten mit einem schwarzen Kreuz Zum Vergrößern, auf den grünen Button mit einem Gedankenstrich zu verkleinern, oder auf die grünen Pfeile für benachbarte Karten.


METAR-TAF: